createdAt,value
2023-04-24T00:00:10.701Z,7.33
2023-04-24T00:01:13.413Z,7.42
2023-04-24T00:02:15.571Z,7.40
2023-04-24T00:03:18.272Z,7.39
2023-04-24T00:04:20.505Z,7.34
2023-04-24T00:05:22.990Z,7.26
2023-04-24T00:06:26.501Z,7.17
2023-04-24T00:07:29.376Z,7.08
2023-04-24T00:08:31.255Z,7.02
2023-04-24T00:09:35.122Z,6.96
2023-04-24T00:10:37.142Z,6.94
2023-04-24T00:11:39.003Z,6.92
2023-04-24T00:12:40.867Z,6.95
2023-04-24T00:13:44.997Z,7.03
2023-04-24T00:14:47.023Z,7.17
2023-04-24T00:15:48.886Z,7.27
2023-04-24T00:16:50.988Z,7.39
2023-04-24T00:17:53.096Z,7.41
2023-04-24T00:18:55.318Z,7.27
2023-04-24T00:19:57.783Z,7.25
2023-04-24T00:20:59.959Z,7.17
2023-04-24T00:22:03.087Z,6.71
2023-04-24T00:23:04.974Z,6.73
2023-04-24T00:24:07.198Z,6.87
2023-04-24T00:25:09.191Z,6.82
2023-04-24T00:26:11.370Z,6.95
2023-04-24T00:27:13.430Z,6.97
2023-04-24T00:28:15.349Z,7.01
2023-04-24T00:29:17.190Z,6.81
2023-04-24T00:30:19.762Z,6.94
2023-04-24T00:31:21.732Z,7.01
2023-04-24T00:32:23.650Z,7.05
2023-04-24T00:33:25.790Z,7.07
2023-04-24T00:34:27.769Z,7.17
2023-04-24T00:35:29.644Z,7.20
2023-04-24T00:36:31.609Z,6.92
2023-04-24T00:37:33.547Z,6.83
2023-04-24T00:38:35.527Z,6.93
2023-04-24T00:39:37.383Z,6.91
2023-04-24T00:40:39.695Z,6.99
2023-04-24T00:41:42.340Z,7.13
2023-04-24T00:42:44.706Z,7.13
2023-04-24T00:43:46.588Z,7.14
2023-04-24T00:44:48.829Z,7.12
2023-04-24T00:45:50.853Z,7.09
2023-04-24T00:46:54.394Z,7.03
2023-04-24T00:47:57.112Z,6.99
2023-04-24T00:48:59.843Z,6.95
2023-04-24T00:50:06.936Z,6.86
2023-04-24T00:51:08.947Z,6.87
2023-04-24T00:52:10.815Z,6.90
2023-04-24T00:53:12.774Z,6.90
2023-04-24T00:54:15.112Z,6.97
2023-04-24T00:55:17.884Z,6.95
2023-04-24T00:56:20.056Z,6.88
2023-04-24T00:57:22.195Z,7.00
2023-04-24T00:58:24.757Z,7.10
2023-04-24T00:59:27.331Z,7.13
2023-04-24T01:00:29.393Z,7.20
2023-04-24T01:01:31.981Z,7.31
2023-04-24T01:02:34.203Z,7.33
2023-04-24T01:03:36.645Z,7.36
2023-04-24T01:04:39.894Z,7.38
2023-04-24T01:05:42.682Z,7.42
2023-04-24T01:06:46.168Z,7.26
2023-04-24T01:07:48.388Z,7.21
2023-04-24T01:08:50.447Z,7.14
2023-04-24T01:09:52.514Z,7.13
2023-04-24T01:10:57.190Z,7.11
2023-04-24T01:11:59.090Z,7.11
2023-04-24T01:13:01.055Z,7.08
2023-04-24T01:14:03.091Z,7.15
2023-04-24T01:15:06.000Z,7.01
2023-04-24T01:16:09.023Z,7.05
2023-04-24T01:17:11.291Z,7.04
2023-04-24T01:18:13.979Z,7.07
2023-04-24T01:19:18.483Z,7.01
2023-04-24T01:20:21.365Z,7.05
2023-04-24T01:21:25.998Z,7.12
2023-04-24T01:22:28.144Z,7.04
2023-04-24T01:23:30.236Z,6.98
2023-04-24T01:24:32.112Z,6.98
2023-04-24T01:25:34.877Z,7.04
2023-04-24T01:26:36.851Z,7.01
2023-04-24T01:27:38.849Z,7.05
2023-04-24T01:28:41.006Z,7.08
2023-04-24T01:29:43.402Z,7.05
2023-04-24T01:30:46.129Z,7.02
2023-04-24T01:31:48.360Z,7.02
2023-04-24T01:32:51.344Z,7.08
2023-04-24T01:33:55.040Z,7.14
2023-04-24T01:34:58.016Z,7.19
2023-04-24T01:36:00.194Z,7.34
2023-04-24T01:37:02.171Z,7.24
2023-04-24T01:38:04.810Z,7.10
2023-04-24T01:39:06.914Z,6.89
2023-04-24T01:40:10.485Z,6.91
2023-04-24T01:41:13.724Z,6.77
2023-04-24T01:42:17.133Z,6.78
2023-04-24T01:43:19.628Z,6.77
2023-04-24T01:44:22.084Z,6.77
2023-04-24T01:45:24.057Z,6.78
2023-04-24T01:46:26.738Z,6.76
2023-04-24T01:47:30.216Z,6.72
2023-04-24T01:48:32.973Z,6.68
2023-04-24T01:49:35.611Z,6.64
2023-04-24T01:50:38.119Z,6.69
2023-04-24T01:51:42.592Z,6.76
2023-04-24T01:52:44.927Z,6.72
2023-04-24T01:53:46.808Z,6.78
2023-04-24T01:54:49.040Z,6.69
2023-04-24T01:55:52.072Z,6.73
2023-04-24T01:56:54.152Z,6.77
2023-04-24T01:57:56.848Z,6.77
2023-04-24T01:59:01.974Z,6.78
2023-04-24T02:00:05.661Z,6.72
2023-04-24T02:01:07.674Z,6.55
2023-04-24T02:02:10.120Z,6.67
2023-04-24T02:03:12.312Z,6.68
2023-04-24T02:04:17.000Z,6.65
2023-04-24T02:05:19.624Z,6.58
2023-04-24T02:06:21.850Z,6.59
2023-04-24T02:07:23.852Z,6.58
2023-04-24T02:08:25.828Z,6.53
2023-04-24T02:09:27.682Z,6.43
2023-04-24T02:10:29.975Z,6.32
2023-04-24T02:11:31.997Z,6.39
2023-04-24T02:12:34.102Z,6.39
2023-04-24T02:13:36.241Z,6.41
2023-04-24T02:14:38.185Z,6.52
2023-04-24T02:15:40.079Z,6.51
2023-04-24T02:16:42.647Z,6.49
2023-04-24T02:17:44.785Z,6.63
2023-04-24T02:18:46.952Z,6.58
2023-04-24T02:19:50.036Z,6.65
2023-04-24T02:20:52.216Z,6.64
2023-04-24T02:21:54.163Z,6.63
2023-04-24T02:22:56.153Z,6.63
2023-04-24T02:23:58.141Z,6.72
2023-04-24T02:25:00.202Z,6.67
2023-04-24T02:26:02.538Z,6.61
2023-04-24T02:27:04.851Z,6.61
2023-04-24T02:28:06.870Z,6.50
2023-04-24T02:29:09.020Z,6.46
2023-04-24T02:30:11.392Z,6.38
2023-04-24T02:31:13.367Z,6.38
2023-04-24T02:32:15.297Z,6.35
2023-04-24T02:33:17.230Z,6.31
2023-04-24T02:34:19.081Z,6.27
2023-04-24T02:35:20.951Z,6.24
2023-04-24T02:36:23.085Z,6.17
2023-04-24T02:37:24.942Z,6.19
2023-04-24T02:38:26.903Z,6.00
2023-04-24T02:39:28.911Z,6.02
2023-04-24T02:40:31.055Z,6.10
2023-04-24T02:41:33.002Z,6.06
2023-04-24T02:42:34.879Z,5.99
2023-04-24T02:43:36.737Z,6.06
2023-04-24T02:44:38.602Z,6.00
2023-04-24T02:45:40.721Z,6.03
2023-04-24T02:46:43.040Z,6.08
2023-04-24T02:47:45.163Z,6.10
2023-04-24T02:48:47.211Z,6.07
2023-04-24T02:49:49.062Z,6.07
2023-04-24T02:50:51.454Z,6.09
2023-04-24T02:51:53.308Z,6.10
2023-04-24T02:52:55.173Z,6.21
2023-04-24T02:53:57.275Z,6.13
2023-04-24T02:54:59.154Z,6.12
2023-04-24T02:56:01.185Z,6.23
2023-04-24T02:57:03.257Z,6.27
2023-04-24T02:58:05.242Z,6.20
2023-04-24T02:59:07.223Z,6.06
2023-04-24T03:00:10.629Z,5.99
2023-04-24T03:01:14.767Z,5.93
2023-04-24T03:02:16.858Z,5.97
2023-04-24T03:03:18.980Z,5.97
2023-04-24T03:04:21.069Z,5.92
2023-04-24T03:05:23.161Z,5.95
2023-04-24T03:06:25.434Z,5.95
2023-04-24T03:07:27.306Z,6.01
2023-04-24T03:08:29.303Z,6.06
2023-04-24T03:09:31.293Z,6.16
2023-04-24T03:10:33.349Z,6.16
2023-04-24T03:11:36.883Z,6.20
2023-04-24T03:12:39.077Z,6.18
2023-04-24T03:13:41.110Z,6.15
2023-04-24T03:14:43.277Z,6.15
2023-04-24T03:15:45.359Z,6.16
2023-04-24T03:16:47.629Z,6.16
2023-04-24T03:17:50.698Z,6.11
2023-04-24T03:18:52.693Z,6.14
2023-04-24T03:19:54.564Z,6.24
2023-04-24T03:20:57.681Z,6.24
2023-04-24T03:21:59.601Z,6.19
2023-04-24T03:23:01.444Z,6.21
2023-04-24T03:24:03.498Z,6.14
2023-04-24T03:25:06.372Z,6.19
2023-04-24T03:26:08.557Z,6.22
2023-04-24T03:27:10.416Z,6.30
2023-04-24T03:28:12.543Z,6.36
2023-04-24T03:29:14.503Z,6.37
2023-04-24T03:30:16.966Z,6.49
2023-04-24T03:31:19.076Z,6.43
2023-04-24T03:32:24.419Z,6.35
2023-04-24T03:33:26.546Z,6.43
2023-04-24T03:34:28.658Z,6.42
2023-04-24T03:35:30.549Z,6.38
2023-04-24T03:36:32.500Z,6.26
2023-04-24T03:37:34.489Z,6.21
2023-04-24T03:38:36.353Z,6.19
2023-04-24T03:39:38.212Z,6.23
2023-04-24T03:40:40.467Z,6.35
2023-04-24T03:41:42.316Z,6.39
2023-04-24T03:42:44.185Z,6.40
2023-04-24T03:43:46.070Z,6.24
2023-04-24T03:44:47.954Z,6.35
2023-04-24T03:45:49.827Z,6.25
2023-04-24T03:46:51.957Z,6.19
2023-04-24T03:47:54.795Z,6.09
2023-04-24T03:48:57.947Z,6.09
2023-04-24T03:50:00.218Z,6.10
2023-04-24T03:51:02.194Z,6.16
2023-04-24T03:52:04.105Z,6.21
2023-04-24T03:53:06.106Z,6.10
2023-04-24T03:54:08.104Z,6.17
2023-04-24T03:55:10.078Z,6.05
2023-04-24T03:56:12.254Z,6.13
2023-04-24T03:57:14.269Z,6.18
2023-04-24T03:58:16.495Z,6.20
2023-04-24T03:59:18.697Z,6.16
2023-04-24T04:00:21.050Z,6.15
2023-04-24T04:01:23.494Z,6.11
2023-04-24T04:02:25.583Z,6.16
2023-04-24T04:03:27.871Z,6.09
2023-04-24T04:04:30.175Z,6.07
2023-04-24T04:05:32.375Z,6.10
2023-04-24T04:06:34.657Z,6.15
2023-04-24T04:07:36.623Z,6.18
2023-04-24T04:08:38.520Z,6.15
2023-04-24T04:09:40.617Z,6.13
2023-04-24T04:10:43.648Z,6.17
2023-04-24T04:11:45.695Z,6.23
2023-04-24T04:12:47.544Z,6.23
2023-04-24T04:13:49.610Z,6.29
2023-04-24T04:14:51.462Z,6.36
2023-04-24T04:15:53.408Z,6.41
2023-04-24T04:16:55.519Z,6.40
2023-04-24T04:17:57.610Z,6.38
2023-04-24T04:18:59.543Z,6.41
2023-04-24T04:20:01.405Z,6.42
2023-04-24T04:21:03.555Z,6.38
2023-04-24T04:22:05.428Z,6.41
2023-04-24T04:23:07.459Z,6.36
2023-04-24T04:24:09.433Z,6.40
2023-04-24T04:25:11.397Z,6.42
2023-04-24T04:26:14.019Z,6.35
2023-04-24T04:27:16.011Z,6.45
2023-04-24T04:28:18.002Z,6.49
2023-04-24T04:29:19.881Z,6.56
2023-04-24T04:30:22.086Z,6.61
2023-04-24T04:31:24.169Z,6.63
2023-04-24T04:32:26.289Z,6.56
2023-04-24T04:33:28.487Z,6.56
2023-04-24T04:34:30.372Z,6.71
2023-04-24T04:35:32.305Z,6.78
2023-04-24T04:36:34.372Z,6.95
2023-04-24T04:37:36.318Z,6.99
2023-04-24T04:38:38.248Z,6.95
2023-04-24T04:39:40.345Z,7.02
2023-04-24T04:40:43.497Z,7.08
2023-04-24T04:41:45.366Z,7.16
2023-04-24T04:42:47.303Z,7.26
2023-04-24T04:43:49.163Z,7.23
2023-04-24T04:44:51.567Z,7.43
2023-04-24T04:45:53.613Z,7.56
2023-04-24T04:46:55.688Z,7.67
2023-04-24T04:47:57.549Z,7.82
2023-04-24T04:49:00.800Z,7.95
2023-04-24T04:50:03.545Z,8.08
2023-04-24T04:51:05.550Z,8.27
2023-04-24T04:52:07.667Z,8.59
2023-04-24T04:53:09.528Z,8.73
2023-04-24T04:54:11.467Z,8.72
2023-04-24T04:55:13.715Z,9.02
2023-04-24T04:56:16.713Z,9.30
2023-04-24T04:57:18.652Z,9.52
2023-04-24T04:58:20.603Z,9.60
2023-04-24T04:59:22.553Z,9.77
2023-04-24T05:00:25.016Z,9.95
2023-04-24T05:01:26.978Z,10.26
2023-04-24T05:02:29.003Z,10.49
2023-04-24T05:03:31.182Z,10.61
2023-04-24T05:04:33.412Z,10.77
2023-04-24T05:05:35.506Z,10.95
2023-04-24T05:06:37.680Z,11.08
2023-04-24T05:07:39.614Z,11.04
2023-04-24T05:08:41.462Z,11.10
2023-04-24T05:09:43.436Z,11.18
2023-04-24T05:10:45.813Z,11.38
2023-04-24T05:11:48.052Z,11.62
2023-04-24T05:12:49.914Z,11.64
2023-04-24T05:13:51.869Z,11.60
2023-04-24T05:14:53.713Z,11.79
2023-04-24T05:15:56.181Z,11.85
2023-04-24T05:16:58.357Z,12.01
2023-04-24T05:18:00.423Z,12.16
2023-04-24T05:19:02.380Z,12.35
2023-04-24T05:20:06.137Z,12.38
2023-04-24T05:21:08.273Z,12.61
2023-04-24T05:22:10.215Z,12.67
2023-04-24T05:23:12.075Z,12.77
2023-04-24T05:24:13.914Z,12.90
2023-04-24T05:25:16.068Z,13.08
2023-04-24T05:26:18.172Z,13.27
2023-04-24T05:27:20.729Z,13.58
2023-04-24T05:28:24.861Z,13.75
2023-04-24T05:29:26.856Z,13.87
2023-04-24T05:30:29.408Z,14.08
2023-04-24T05:31:31.399Z,14.39
2023-04-24T05:32:33.373Z,14.58
2023-04-24T05:33:35.409Z,14.81
2023-04-24T05:34:37.484Z,14.99
2023-04-24T05:35:41.180Z,15.11
2023-04-24T05:36:43.311Z,15.27
2023-04-24T05:37:45.201Z,15.41
2023-04-24T05:38:47.180Z,15.56
2023-04-24T05:39:49.162Z,15.63
2023-04-24T05:40:51.116Z,15.71
2023-04-24T05:41:52.974Z,15.81
2023-04-24T05:42:55.963Z,15.95
2023-04-24T05:43:57.887Z,16.09
2023-04-24T05:44:59.854Z,16.21
2023-04-24T05:46:01.988Z,16.30
2023-04-24T05:47:04.177Z,16.46
2023-04-24T05:48:06.475Z,16.66
2023-04-24T05:49:09.613Z,16.77
2023-04-24T05:50:12.303Z,16.83
2023-04-24T05:51:14.262Z,16.88
2023-04-24T05:52:16.206Z,17.05
2023-04-24T05:53:21.008Z,17.11
2023-04-24T05:54:22.903Z,17.13
2023-04-24T05:55:26.020Z,17.27
2023-04-24T05:56:28.117Z,17.30
2023-04-24T05:57:30.084Z,17.43
2023-04-24T05:58:31.971Z,17.45
2023-04-24T05:59:36.511Z,17.54
2023-04-24T06:00:38.983Z,17.70
2023-04-24T06:01:40.992Z,17.74
2023-04-24T06:02:43.113Z,17.80
2023-04-24T06:03:45.216Z,17.93
2023-04-24T06:04:47.398Z,18.01
2023-04-24T06:05:51.128Z,18.15
2023-04-24T06:06:53.233Z,18.14
2023-04-24T06:07:55.106Z,18.25
2023-04-24T06:08:57.039Z,18.23
2023-04-24T06:09:58.996Z,18.27
2023-04-24T06:11:03.272Z,18.37
2023-04-24T06:12:05.307Z,18.50
2023-04-24T06:13:07.222Z,18.62
2023-04-24T06:14:09.174Z,18.61
2023-04-24T06:15:11.510Z,18.63
2023-04-24T06:16:13.829Z,18.67
2023-04-24T06:17:16.279Z,18.58
2023-04-24T06:18:18.194Z,18.71
2023-04-24T06:19:20.152Z,18.69
2023-04-24T06:20:22.596Z,18.68
2023-04-24T06:21:24.492Z,18.81
2023-04-24T06:22:26.447Z,18.92
2023-04-24T06:23:28.306Z,19.06
2023-04-24T06:24:30.400Z,19.15
2023-04-24T06:25:32.721Z,19.23
2023-04-24T06:26:34.878Z,19.25
2023-04-24T06:27:36.749Z,19.18
2023-04-24T06:28:39.558Z,19.25
2023-04-24T06:29:41.912Z,19.27
2023-04-24T06:30:44.819Z,19.32
2023-04-24T06:31:46.811Z,19.44
2023-04-24T06:32:48.895Z,19.40
2023-04-24T06:33:50.909Z,19.43
2023-04-24T06:34:52.862Z,19.47
2023-04-24T06:35:54.739Z,19.56
2023-04-24T06:36:57.199Z,19.77
2023-04-24T06:37:59.198Z,19.70
2023-04-24T06:39:01.388Z,19.75
2023-04-24T06:40:06.006Z,19.81
2023-04-24T06:41:08.284Z,19.81
2023-04-24T06:42:10.177Z,19.84
2023-04-24T06:43:12.864Z,19.85
2023-04-24T06:44:14.832Z,19.84
2023-04-24T06:45:16.836Z,19.90
2023-04-24T06:46:20.431Z,20.11
2023-04-24T06:47:22.918Z,20.15
2023-04-24T06:48:26.209Z,20.11
2023-04-24T06:49:28.080Z,20.18
2023-04-24T06:50:30.281Z,20.06
2023-04-24T06:51:32.221Z,20.31
2023-04-24T06:52:34.083Z,20.17
2023-04-24T06:53:35.931Z,20.23
2023-04-24T06:54:37.812Z,20.37
2023-04-24T06:55:40.375Z,20.38
2023-04-24T06:56:42.573Z,20.58
2023-04-24T06:57:44.706Z,20.46
2023-04-24T06:58:46.857Z,20.58
2023-04-24T06:59:48.825Z,20.73
2023-04-24T07:00:50.893Z,20.64
2023-04-24T07:01:55.188Z,20.59
2023-04-24T07:02:56.681Z,20.65
2023-04-24T07:03:58.743Z,20.61
2023-04-24T07:05:00.734Z,20.58
2023-04-24T07:06:03.273Z,20.63
2023-04-24T07:07:05.165Z,20.68
2023-04-24T07:08:07.037Z,20.77
2023-04-24T07:09:08.966Z,20.69
2023-04-24T07:10:11.468Z,20.64
2023-04-24T07:11:13.435Z,20.62
2023-04-24T07:12:15.305Z,20.61
2023-04-24T07:13:17.335Z,20.89
2023-04-24T07:14:20.049Z,20.96
2023-04-24T07:15:22.348Z,20.97
2023-04-24T07:16:24.675Z,20.90
2023-04-24T07:17:26.623Z,21.00
2023-04-24T07:18:28.530Z,21.00
2023-04-24T07:19:30.393Z,20.82
2023-04-24T07:20:32.651Z,20.97
2023-04-24T07:21:34.818Z,21.12
2023-04-24T07:22:38.734Z,21.12
2023-04-24T07:23:40.647Z,21.05
2023-04-24T07:24:45.022Z,21.07
2023-04-24T07:25:46.929Z,21.04
2023-04-24T07:26:49.009Z,21.00
2023-04-24T07:27:51.050Z,21.01
2023-04-24T07:28:53.104Z,21.05
2023-04-24T07:29:55.057Z,21.03
2023-04-24T07:30:57.927Z,20.96
2023-04-24T07:32:00.995Z,21.20
2023-04-24T07:33:03.688Z,21.20
2023-04-24T07:34:05.629Z,21.02
2023-04-24T07:35:08.628Z,21.00
2023-04-24T07:36:10.784Z,20.80
2023-04-24T07:37:12.862Z,20.71
2023-04-24T07:38:14.998Z,20.73
2023-04-24T07:39:16.895Z,20.80
2023-04-24T07:40:20.508Z,20.95
2023-04-24T07:41:24.954Z,21.12
2023-04-24T07:42:26.816Z,21.09
2023-04-24T07:43:29.468Z,20.96
2023-04-24T07:44:31.453Z,21.10
2023-04-24T07:45:33.331Z,21.16
2023-04-24T07:46:35.470Z,21.23
2023-04-24T07:47:37.766Z,21.35
2023-04-24T07:48:39.761Z,21.17
2023-04-24T07:49:42.560Z,21.20
2023-04-24T07:50:45.256Z,21.08
2023-04-24T07:51:47.269Z,21.04
2023-04-24T07:52:49.340Z,21.26
2023-04-24T07:53:51.298Z,21.33
2023-04-24T07:54:53.171Z,21.22
2023-04-24T07:55:56.867Z,21.06
2023-04-24T07:56:59.127Z,21.19
2023-04-24T07:58:01.132Z,21.14
2023-04-24T07:59:03.063Z,20.95
2023-04-24T08:00:06.730Z,20.95
2023-04-24T08:01:08.613Z,21.06
2023-04-24T08:02:10.984Z,21.14
2023-04-24T08:03:13.530Z,21.14
2023-04-24T08:04:15.870Z,21.10
2023-04-24T08:05:18.234Z,21.05
2023-04-24T08:06:20.361Z,21.03
2023-04-24T08:07:24.237Z,20.79
2023-04-24T08:08:28.281Z,20.82
2023-04-24T08:09:30.319Z,20.74
2023-04-24T08:10:32.516Z,20.62
2023-04-24T08:11:34.504Z,20.82
2023-04-24T08:12:37.387Z,20.80
2023-04-24T08:13:39.388Z,20.79
2023-04-24T08:14:41.798Z,20.92
2023-04-24T08:15:43.970Z,21.11
2023-04-24T08:16:46.876Z,21.33
2023-04-24T08:17:49.016Z,21.14
2023-04-24T08:18:51.244Z,20.98
2023-04-24T08:19:53.152Z,21.06
2023-04-24T08:20:55.719Z,21.01
2023-04-24T08:21:57.608Z,20.81
2023-04-24T08:22:59.614Z,20.93
2023-04-24T08:24:01.602Z,20.51
2023-04-24T08:25:04.401Z,20.20
2023-04-24T08:26:06.588Z,20.37
2023-04-24T08:27:09.170Z,20.50
2023-04-24T08:28:11.202Z,20.65
2023-04-24T08:29:13.282Z,20.53
2023-04-24T08:30:15.606Z,20.55
2023-04-24T08:31:17.504Z,20.70
2023-04-24T08:32:19.791Z,20.69
2023-04-24T08:33:24.342Z,20.04
2023-04-24T08:34:26.337Z,19.68
2023-04-24T08:35:28.207Z,19.66
2023-04-24T08:36:40.047Z,19.53
2023-04-24T08:37:34.380Z,19.34
2023-04-24T08:38:36.529Z,19.37
2023-04-24T08:39:38.629Z,19.37
2023-04-24T08:40:41.596Z,19.60
2023-04-24T08:41:44.227Z,19.70
2023-04-24T08:42:46.354Z,19.90
2023-04-24T08:43:49.212Z,19.98
2023-04-24T08:44:51.437Z,20.07
2023-04-24T08:45:57.224Z,20.17
2023-04-24T08:47:00.820Z,20.44
2023-04-24T08:48:04.896Z,20.50
2023-04-24T08:49:07.035Z,20.69
2023-04-24T08:50:10.107Z,20.49
2023-04-24T08:51:12.088Z,20.61
2023-04-24T08:52:13.974Z,20.66
2023-04-24T08:53:18.032Z,20.68
2023-04-24T08:54:21.520Z,20.91
2023-04-24T08:55:25.109Z,20.80
2023-04-24T08:56:28.955Z,20.57
2023-04-24T08:57:32.700Z,20.69
2023-04-24T08:58:36.342Z,20.58
2023-04-24T08:59:39.003Z,20.56
2023-04-24T09:00:41.799Z,20.55
2023-04-24T09:01:45.715Z,20.59
2023-04-24T09:02:50.485Z,20.83
2023-04-24T09:03:55.231Z,20.92
2023-04-24T09:04:58.216Z,20.69
2023-04-24T09:06:01.666Z,20.77
2023-04-24T09:07:06.328Z,20.58
2023-04-24T09:08:08.681Z,20.68
2023-04-24T09:09:11.479Z,20.84
2023-04-24T09:10:14.138Z,20.78
2023-04-24T09:11:17.253Z,20.84
2023-04-24T09:12:19.544Z,20.72
2023-04-24T09:13:21.708Z,20.69
2023-04-24T09:14:24.362Z,20.71
2023-04-24T09:15:26.617Z,20.75
2023-04-24T09:16:29.240Z,20.83
2023-04-24T09:17:32.591Z,20.65
2023-04-24T09:18:34.531Z,20.68
2023-04-24T09:19:39.095Z,20.58
2023-04-24T09:21:02.912Z,20.51
2023-04-24T09:22:06.205Z,20.54
2023-04-24T09:23:08.117Z,20.58
2023-04-24T09:25:45.757Z,20.43
2023-04-24T09:26:49.315Z,20.38
2023-04-24T09:27:54.044Z,20.14
2023-04-24T09:28:55.916Z,20.16
2023-04-24T09:29:58.791Z,20.11
2023-04-24T09:31:13.803Z,20.15
2023-04-24T09:32:20.132Z,20.08
2023-04-24T09:33:22.105Z,20.14
2023-04-24T09:34:26.715Z,19.85
2023-04-24T09:35:28.684Z,20.09
2023-04-24T09:36:40.303Z,20.16
2023-04-24T09:37:44.890Z,20.21
2023-04-24T09:38:46.880Z,20.27
2023-04-24T09:39:52.684Z,20.12
2023-04-24T09:40:54.892Z,20.14
2023-04-24T09:41:57.729Z,20.08
2023-04-24T09:42:59.666Z,19.74
2023-04-24T09:44:19.602Z,19.90
2023-04-24T09:45:21.765Z,20.04
2023-04-24T09:46:31.731Z,19.92
2023-04-24T09:47:39.362Z,19.80
2023-04-24T09:48:41.452Z,19.91
2023-04-24T09:49:43.636Z,19.87
2023-04-24T09:50:50.619Z,19.87
2023-04-24T09:51:54.728Z,19.88
2023-04-24T09:53:06.047Z,19.71
2023-04-24T09:54:15.077Z,19.59
2023-04-24T09:55:20.079Z,19.31
2023-04-24T09:56:25.661Z,19.35
2023-04-24T09:57:27.737Z,19.32
2023-04-24T09:58:29.906Z,19.34
2023-04-24T09:59:31.802Z,19.25
2023-04-24T10:00:34.245Z,19.34
2023-04-24T10:01:36.463Z,19.25
2023-04-24T10:02:38.789Z,19.16
2023-04-24T10:03:42.555Z,19.19
2023-04-24T10:04:55.869Z,19.34
2023-04-24T10:06:02.955Z,19.29
2023-04-24T10:07:05.578Z,19.29
2023-04-24T10:08:12.491Z,19.27
2023-04-24T10:09:15.512Z,19.36
2023-04-24T10:10:17.937Z,19.54
2023-04-24T10:11:19.992Z,19.75
2023-04-24T10:12:23.278Z,19.82
2023-04-24T10:13:25.874Z,19.82
2023-04-24T10:14:27.832Z,19.77
2023-04-24T10:15:30.872Z,19.80
2023-04-24T10:16:33.275Z,19.73
2023-04-24T10:17:36.194Z,19.68
2023-04-24T10:18:40.183Z,19.74
2023-04-24T10:19:43.634Z,19.67
2023-04-24T10:20:46.353Z,19.58
2023-04-24T10:21:48.551Z,19.72
2023-04-24T10:22:52.817Z,19.84
2023-04-24T10:23:55.462Z,19.50
2023-04-24T10:24:58.814Z,19.09
2023-04-24T10:26:00.788Z,19.37
2023-04-24T10:27:03.848Z,19.70
2023-04-24T10:28:06.690Z,19.71
2023-04-24T10:29:11.069Z,19.73
2023-04-24T10:30:14.319Z,19.66
2023-04-24T10:31:18.922Z,19.46
2023-04-24T10:32:20.912Z,19.45
2023-04-24T10:33:24.281Z,19.34
2023-04-24T10:34:26.448Z,19.34
2023-04-24T10:35:31.305Z,19.31
2023-04-24T10:36:35.366Z,19.31
2023-04-24T10:37:40.343Z,19.25
2023-04-24T10:38:45.980Z,19.22
2023-04-24T10:39:49.141Z,19.15
2023-04-24T10:40:51.117Z,19.13
2023-04-24T10:41:54.396Z,19.14
2023-04-24T10:42:58.716Z,19.18
2023-04-24T10:44:09.478Z,19.14
2023-04-24T10:45:22.261Z,19.06
2023-04-24T10:46:28.158Z,19.13
2023-04-24T10:47:30.495Z,19.13
2023-04-24T10:48:34.558Z,19.25
2023-04-24T10:49:36.549Z,19.31
2023-04-24T10:50:47.733Z,19.33
2023-04-24T10:51:50.842Z,19.39
2023-04-24T10:52:52.852Z,19.43
2023-04-24T10:53:57.962Z,19.53
2023-04-24T10:55:01.970Z,19.36
2023-04-24T10:56:09.054Z,19.39
2023-04-24T10:57:28.062Z,19.46
2023-04-24T10:58:42.343Z,19.48
2023-04-24T10:59:45.463Z,19.51
2023-04-24T11:01:01.225Z,19.40
2023-04-24T11:02:03.331Z,19.37
2023-04-24T11:03:26.761Z,19.32
2023-04-24T11:05:58.983Z,19.33
2023-04-24T11:07:02.922Z,19.27
2023-04-24T11:08:13.508Z,19.37
2023-04-24T11:09:15.965Z,19.30
2023-04-24T11:10:27.648Z,19.21
2023-04-24T11:11:30.659Z,19.23
2023-04-24T11:12:37.864Z,19.19
2023-04-24T11:13:58.602Z,19.25
2023-04-24T11:15:02.180Z,19.27
2023-04-24T11:16:16.968Z,19.33
2023-04-24T11:17:37.398Z,19.17
2023-04-24T11:18:43.273Z,19.20
2023-04-24T11:19:48.927Z,19.22
2023-04-24T11:20:52.933Z,19.18
2023-04-24T11:21:58.465Z,19.18
2023-04-24T11:23:04.197Z,19.17
2023-04-24T11:25:43.750Z,19.22
2023-04-24T11:26:45.718Z,19.10
2023-04-24T11:27:47.771Z,19.08
2023-04-24T11:28:51.135Z,19.08
2023-04-24T11:29:59.993Z,19.09
2023-04-24T11:31:22.897Z,19.11
2023-04-24T11:32:42.124Z,19.18
2023-04-24T11:33:44.558Z,19.25
2023-04-24T11:34:49.333Z,19.16
2023-04-24T11:35:51.947Z,19.18
2023-04-24T11:36:54.066Z,19.24
2023-04-24T11:39:00.822Z,19.33
2023-04-24T11:40:04.684Z,19.33
2023-04-24T11:41:06.968Z,19.33
2023-04-24T11:42:15.345Z,19.34
2023-04-24T11:43:20.084Z,19.18
2023-04-24T11:44:24.769Z,18.99
2023-04-24T11:45:29.180Z,19.16
2023-04-24T11:46:32.670Z,19.18
2023-04-24T11:47:34.860Z,19.26
2023-04-24T11:48:37.017Z,19.38
2023-04-24T11:49:39.010Z,19.43
2023-04-24T11:50:45.048Z,19.48
2023-04-24T11:51:53.020Z,19.48
2023-04-24T11:52:50.911Z,19.47
2023-04-24T11:54:03.518Z,19.56
2023-04-24T11:55:00.518Z,19.56
2023-04-24T11:56:04.414Z,19.56
2023-04-24T11:57:06.527Z,19.59
2023-04-24T11:58:08.408Z,19.68
2023-04-24T11:59:10.449Z,19.63
2023-04-24T12:00:18.144Z,19.49
2023-04-24T12:01:20.496Z,19.53
2023-04-24T12:02:25.290Z,19.57
2023-04-24T12:03:27.881Z,19.62
2023-04-24T12:04:35.587Z,19.62
2023-04-24T12:05:39.052Z,19.41
2023-04-24T12:07:02.141Z,19.61
2023-04-24T12:08:04.447Z,19.54
2023-04-24T12:09:17.868Z,19.62
2023-04-24T12:10:11.182Z,19.64
2023-04-24T12:11:15.918Z,19.71
2023-04-24T12:12:19.135Z,19.78
2023-04-24T12:13:21.869Z,19.80
2023-04-24T12:14:24.534Z,19.80
2023-04-24T12:15:27.654Z,19.85
2023-04-24T12:16:29.883Z,19.85
2023-04-24T12:17:33.892Z,19.79
2023-04-24T12:18:44.301Z,19.68
2023-04-24T12:19:47.912Z,19.69
2023-04-24T12:20:50.630Z,19.62
2023-04-24T12:22:04.453Z,19.59
2023-04-24T12:23:06.368Z,19.60
2023-04-24T12:24:08.356Z,19.56
2023-04-24T12:25:11.267Z,19.69
2023-04-24T12:27:31.446Z,19.55
2023-04-24T12:28:38.243Z,19.49
2023-04-24T12:29:58.104Z,19.40
2023-04-24T12:31:01.603Z,19.52
2023-04-24T12:32:03.757Z,19.52
2023-04-24T12:33:05.845Z,19.55
2023-04-24T12:34:21.738Z,19.60
2023-04-24T12:35:25.128Z,19.62
2023-04-24T12:36:27.241Z,19.58
2023-04-24T12:37:32.871Z,19.49
2023-04-24T12:38:34.821Z,19.71
2023-04-24T12:39:36.687Z,19.54
2023-04-24T12:40:39.456Z,19.67
2023-04-24T12:41:50.813Z,19.63
2023-04-24T12:42:52.721Z,19.51
2023-04-24T12:43:54.734Z,19.36
2023-04-24T12:44:59.699Z,19.27
2023-04-24T12:46:02.286Z,19.28
2023-04-24T12:47:04.312Z,19.19
2023-04-24T12:48:06.336Z,19.04
2023-04-24T12:49:08.246Z,18.90
2023-04-24T12:50:12.539Z,18.76
2023-04-24T12:51:14.529Z,18.65
2023-04-24T12:52:16.532Z,18.63
2023-04-24T12:53:18.383Z,18.62
2023-04-24T12:54:20.258Z,18.56
2023-04-24T12:55:22.605Z,18.46
2023-04-24T12:56:24.884Z,18.21
2023-04-24T12:57:29.885Z,17.87
2023-04-24T12:58:31.893Z,17.89
2023-04-24T12:59:33.780Z,17.41
2023-04-24T13:00:36.348Z,17.43
2023-04-24T13:01:38.515Z,17.63
2023-04-24T13:02:40.619Z,17.76
2023-04-24T13:03:43.053Z,17.94
2023-04-24T13:04:49.299Z,17.98
2023-04-24T13:05:51.440Z,18.06
2023-04-24T13:06:54.230Z,18.09
2023-04-24T13:07:57.621Z,18.12
2023-04-24T13:09:00.425Z,18.16
2023-04-24T13:10:02.792Z,18.20
2023-04-24T13:11:04.882Z,18.31
2023-04-24T13:12:08.002Z,18.27
2023-04-24T13:13:09.954Z,18.22
2023-04-24T13:14:11.795Z,18.33
2023-04-24T13:15:13.751Z,18.33
2023-04-24T13:16:15.862Z,18.32
2023-04-24T13:17:17.892Z,18.31
2023-04-24T13:18:19.974Z,18.32
2023-04-24T13:19:22.125Z,18.24
2023-04-24T13:20:25.482Z,18.25
2023-04-24T13:21:27.503Z,18.29
2023-04-24T13:22:29.557Z,18.29
2023-04-24T13:23:31.487Z,18.28
2023-04-24T13:24:33.657Z,18.23
2023-04-24T13:25:36.727Z,18.28
2023-04-24T13:26:38.876Z,18.23
2023-04-24T13:27:40.714Z,18.23
2023-04-24T13:28:42.679Z,18.22
2023-04-24T13:29:44.939Z,18.20
2023-04-24T13:30:47.033Z,18.17
2023-04-24T13:31:51.273Z,18.23
2023-04-24T13:32:53.535Z,18.26
2023-04-24T13:33:55.590Z,17.95
2023-04-24T13:34:57.439Z,18.08
2023-04-24T13:35:59.452Z,17.63
2023-04-24T13:37:02.098Z,17.90
2023-04-24T13:38:04.240Z,18.00
2023-04-24T13:39:06.536Z,18.06
2023-04-24T13:40:10.331Z,18.04
2023-04-24T13:41:12.248Z,18.04
2023-04-24T13:42:14.643Z,18.11
2023-04-24T13:43:17.114Z,18.14
2023-04-24T13:44:20.669Z,18.11
2023-04-24T13:45:25.639Z,18.10
2023-04-24T13:46:26.693Z,18.09
2023-04-24T13:47:28.676Z,18.14
2023-04-24T13:48:30.802Z,18.19
2023-04-24T13:49:32.689Z,18.17